createdAt,value
2023-04-30T00:00:37.463Z,100551.31
2023-04-30T00:03:05.497Z,100542.22
2023-04-30T00:05:33.674Z,100544.59
2023-04-30T00:08:01.767Z,100549.09
2023-04-30T00:10:31.587Z,100547.50
2023-04-30T00:13:01.280Z,100545.13
2023-04-30T00:15:29.896Z,100542.63
2023-04-30T00:17:57.582Z,100546.78
2023-04-30T00:20:25.424Z,100541.81
2023-04-30T00:22:53.441Z,100551.03
2023-04-30T00:25:24.524Z,100550.03
2023-04-30T00:27:52.370Z,100552.75
2023-04-30T00:30:21.710Z,100545.84
2023-04-30T00:32:49.727Z,100550.53
2023-04-30T00:35:17.771Z,100549.88
2023-04-30T00:37:45.803Z,100551.97
2023-04-30T00:40:14.805Z,100552.41
2023-04-30T00:42:42.616Z,100558.84
2023-04-30T00:45:11.822Z,100559.81
2023-04-30T00:47:41.263Z,100557.41
2023-04-30T00:50:09.804Z,100558.44
2023-04-30T00:52:37.654Z,100560.53
2023-04-30T00:55:05.957Z,100565.47
2023-04-30T00:57:35.590Z,100568.50
2023-04-30T01:00:03.905Z,100567.00
2023-04-30T01:02:32.700Z,100570.56
2023-04-30T01:05:02.682Z,100567.69
2023-04-30T01:07:31.302Z,100560.22
2023-04-30T01:09:59.113Z,100562.66
2023-04-30T01:12:30.455Z,100562.59
2023-04-30T01:15:01.694Z,100565.63
2023-04-30T01:17:33.783Z,100569.63
2023-04-30T01:20:04.213Z,100563.13
2023-04-30T01:22:42.007Z,100568.25
2023-04-30T01:25:22.448Z,100561.44
2023-04-30T01:28:05.487Z,100568.03
2023-04-30T01:30:34.629Z,100562.84
2023-04-30T01:33:03.065Z,100565.66
2023-04-30T01:35:47.572Z,100566.72
2023-04-30T01:38:23.662Z,100559.09
2023-04-30T01:40:55.210Z,100561.81
2023-04-30T01:43:29.873Z,100565.13
2023-04-30T01:46:02.802Z,100562.59
2023-04-30T01:48:36.366Z,100561.56
2023-04-30T01:51:09.961Z,100565.63
2023-04-30T01:53:41.657Z,100563.88
2023-04-30T01:56:12.419Z,100566.59
2023-04-30T01:58:41.973Z,100570.88
2023-04-30T02:01:26.534Z,100569.47
2023-04-30T02:03:54.796Z,100576.34
2023-04-30T02:06:22.837Z,100573.59
2023-04-30T02:08:50.722Z,100583.44
2023-04-30T02:11:18.545Z,100582.94
2023-04-30T02:13:47.799Z,100584.09
2023-04-30T02:16:16.031Z,100582.03
2023-04-30T02:18:43.679Z,100577.84
2023-04-30T02:21:11.827Z,100575.19
2023-04-30T02:23:39.667Z,100578.47
2023-04-30T02:26:09.087Z,100581.63
2023-04-30T02:28:37.478Z,100591.28
2023-04-30T02:31:07.493Z,100583.72
2023-04-30T02:33:35.813Z,100580.75
2023-04-30T02:36:03.694Z,100579.44
2023-04-30T02:38:31.417Z,100573.78
2023-04-30T02:40:59.257Z,100575.78
2023-04-30T02:43:27.359Z,100569.94
2023-04-30T02:45:55.231Z,100576.25
2023-04-30T02:48:24.696Z,100579.97
2023-04-30T02:50:53.112Z,100570.50
2023-04-30T02:53:21.343Z,100568.75
2023-04-30T02:55:49.197Z,100567.81
2023-04-30T02:58:17.354Z,100570.91
2023-04-30T03:00:45.276Z,100568.22
2023-04-30T03:03:16.497Z,100577.66
2023-04-30T03:05:47.264Z,100582.97
2023-04-30T03:08:16.871Z,100580.69
2023-04-30T03:10:44.956Z,100573.00
2023-04-30T03:13:13.131Z,100575.28
2023-04-30T03:15:41.948Z,100566.41
2023-04-30T03:18:10.138Z,100568.22
2023-04-30T03:20:39.625Z,100563.69
2023-04-30T03:23:09.190Z,100568.59
2023-04-30T03:25:37.577Z,100568.13
2023-04-30T03:28:06.854Z,100563.56
2023-04-30T03:30:35.228Z,100561.91
2023-04-30T03:33:03.690Z,100559.75
2023-04-30T03:35:31.900Z,100565.19
2023-04-30T03:38:00.087Z,100556.56
2023-04-30T03:40:30.339Z,100562.13
2023-04-30T03:42:59.013Z,100562.94
2023-04-30T03:45:27.495Z,100559.72
2023-04-30T03:47:56.500Z,100565.56
2023-04-30T03:50:24.791Z,100565.88
2023-04-30T03:52:53.054Z,100567.69
2023-04-30T03:55:20.961Z,100563.28
2023-04-30T03:57:50.657Z,100567.28
2023-04-30T04:00:22.039Z,100567.63
2023-04-30T04:02:53.735Z,100567.56
2023-04-30T04:05:22.179Z,100562.38
2023-04-30T04:07:50.240Z,100566.91
2023-04-30T04:10:19.501Z,100565.44
2023-04-30T04:12:48.656Z,100564.78
2023-04-30T04:15:21.463Z,100564.13
2023-04-30T04:17:49.907Z,100575.66
2023-04-30T04:20:18.602Z,100573.84
2023-04-30T04:22:46.954Z,100575.72
2023-04-30T04:25:15.302Z,100583.09
2023-04-30T04:27:45.405Z,100579.34
2023-04-30T04:30:14.257Z,100589.81
2023-04-30T04:32:50.188Z,100586.81
2023-04-30T04:35:21.049Z,100581.44
2023-04-30T04:37:49.526Z,100588.09
2023-04-30T04:40:19.025Z,100580.59
2023-04-30T04:42:47.663Z,100588.31
2023-04-30T04:45:16.432Z,100591.97
2023-04-30T04:47:47.002Z,100596.25
2023-04-30T04:50:15.958Z,100594.25
2023-04-30T04:52:43.873Z,100591.34
2023-04-30T04:55:12.657Z,100590.44
2023-04-30T04:57:42.171Z,100599.50
2023-04-30T05:00:12.674Z,100598.63
2023-04-30T05:02:40.836Z,100593.91
2023-04-30T05:05:11.879Z,100598.69
2023-04-30T05:07:40.226Z,100600.78
2023-04-30T05:10:10.265Z,100600.25
2023-04-30T05:12:39.317Z,100603.69
2023-04-30T05:15:07.684Z,100607.63
2023-04-30T05:17:36.205Z,100609.50
2023-04-30T05:20:05.149Z,100603.03
2023-04-30T05:22:34.953Z,100607.69
2023-04-30T05:25:03.826Z,100612.03
2023-04-30T05:27:32.365Z,100602.50
2023-04-30T05:30:03.131Z,100603.75
2023-04-30T05:32:31.614Z,100597.00
2023-04-30T05:35:00.023Z,100607.94
2023-04-30T05:37:29.211Z,100604.84
2023-04-30T05:39:59.123Z,100606.81
2023-04-30T05:42:27.731Z,100605.78
2023-04-30T05:44:56.563Z,100615.13
2023-04-30T05:47:25.142Z,100610.94
2023-04-30T05:49:53.683Z,100613.63
2023-04-30T05:52:22.280Z,100622.06
2023-04-30T05:54:50.955Z,100619.75
2023-04-30T05:57:22.795Z,100616.69
2023-04-30T05:59:50.984Z,100613.72
2023-04-30T06:02:19.855Z,100620.84
2023-04-30T06:04:48.942Z,100616.94
2023-04-30T06:07:17.838Z,100612.38
2023-04-30T06:09:46.379Z,100613.81
2023-04-30T06:12:15.019Z,100609.50
2023-04-30T06:14:46.086Z,100618.22
2023-04-30T06:17:15.168Z,100618.47
2023-04-30T06:19:43.550Z,100614.34
2023-04-30T06:22:12.390Z,100625.75
2023-04-30T06:24:41.068Z,100617.19
2023-04-30T06:27:10.224Z,100614.59
2023-04-30T06:29:38.568Z,100613.69
2023-04-30T06:32:08.818Z,100630.13
2023-04-30T06:34:37.245Z,100626.28
2023-04-30T06:37:05.533Z,100616.63
2023-04-30T06:39:34.108Z,100620.00
2023-04-30T06:42:02.425Z,100626.16
2023-04-30T06:44:30.771Z,100636.31
2023-04-30T06:46:59.677Z,100633.75
2023-04-30T06:49:29.453Z,100633.56
2023-04-30T06:51:58.581Z,100629.91
2023-04-30T06:54:27.987Z,100628.06
2023-04-30T06:56:55.816Z,100628.13
2023-04-30T06:59:23.745Z,100630.44
2023-04-30T07:01:51.717Z,100625.66
2023-04-30T07:04:20.173Z,100628.47
2023-04-30T07:06:51.039Z,100625.47
2023-04-30T07:09:21.623Z,100626.63
2023-04-30T07:11:50.429Z,100626.84
2023-04-30T07:14:18.593Z,100630.09
2023-04-30T07:16:46.462Z,100627.19
2023-04-30T07:19:15.802Z,100623.47
2023-04-30T07:21:46.174Z,100620.28
2023-04-30T07:24:15.754Z,100633.25
2023-04-30T07:26:44.089Z,100629.66
2023-04-30T07:29:12.061Z,100635.56
2023-04-30T07:31:39.928Z,100624.75
2023-04-30T07:34:09.064Z,100626.19
2023-04-30T07:36:38.489Z,100626.75
2023-04-30T07:39:06.715Z,100624.25
2023-04-30T07:41:36.559Z,100625.13
2023-04-30T07:44:04.597Z,100631.44
2023-04-30T07:46:32.584Z,100625.38
2023-04-30T07:49:00.999Z,100628.03
2023-04-30T07:51:29.461Z,100630.56
2023-04-30T07:53:57.725Z,100625.13
2023-04-30T07:56:25.932Z,100619.22
2023-04-30T07:58:55.787Z,100623.22
2023-04-30T08:01:24.065Z,100625.88
2023-04-30T08:03:52.534Z,100625.88
2023-04-30T08:06:20.659Z,100623.94
2023-04-30T08:08:50.503Z,100625.94
2023-04-30T08:11:19.042Z,100621.31
2023-04-30T08:13:47.620Z,100630.44
2023-04-30T08:16:17.377Z,100626.72
2023-04-30T08:18:46.734Z,100626.56
2023-04-30T08:21:14.846Z,100635.38
2023-04-30T08:23:42.810Z,100630.31
2023-04-30T08:26:10.613Z,100625.09
2023-04-30T08:28:38.606Z,100615.91
2023-04-30T08:31:06.625Z,100617.75
2023-04-30T08:33:36.170Z,100614.09
2023-04-30T08:36:04.113Z,100616.16
2023-04-30T08:38:32.422Z,100615.38
2023-04-30T08:41:06.640Z,100616.75
2023-04-30T08:43:35.653Z,100614.47
2023-04-30T08:46:04.270Z,100618.81
2023-04-30T08:48:33.153Z,100612.19
2023-04-30T08:51:03.314Z,100608.56
2023-04-30T08:53:32.024Z,100614.09
2023-04-30T08:56:00.648Z,100611.63
2023-04-30T08:58:28.571Z,100608.59
2023-04-30T09:00:59.246Z,100614.81
2023-04-30T09:03:27.734Z,100604.13
2023-04-30T09:05:57.158Z,100608.25
2023-04-30T09:08:42.769Z,100606.50
2023-04-30T09:11:28.383Z,100598.66
2023-04-30T09:13:57.408Z,100589.34
2023-04-30T09:16:26.694Z,100595.97
2023-04-30T09:18:55.071Z,100600.56
2023-04-30T09:21:33.062Z,100606.00
2023-04-30T09:24:02.075Z,100595.81
2023-04-30T09:26:34.180Z,100598.44
2023-04-30T09:29:08.185Z,100590.09
2023-04-30T09:31:37.118Z,100589.38
2023-04-30T09:34:06.269Z,100589.31
2023-04-30T09:36:34.748Z,100583.00
2023-04-30T09:39:14.951Z,100571.06
2023-04-30T09:41:44.981Z,100573.91
2023-04-30T09:44:27.736Z,100574.06
2023-04-30T09:46:56.809Z,100569.22
2023-04-30T09:49:25.870Z,100570.56
2023-04-30T09:51:57.677Z,100568.06
2023-04-30T09:54:27.127Z,100562.59
2023-04-30T09:56:58.201Z,100576.72
2023-04-30T09:59:30.937Z,100569.81
2023-04-30T10:02:00.196Z,100557.72
2023-04-30T10:04:29.565Z,100566.94
2023-04-30T10:06:59.590Z,100566.47
2023-04-30T10:09:31.375Z,100564.38
2023-04-30T10:12:02.379Z,100557.09
2023-04-30T10:14:34.781Z,100556.13
2023-04-30T10:17:07.184Z,100562.59
2023-04-30T10:19:37.599Z,100549.53
2023-04-30T10:22:06.770Z,100547.34
2023-04-30T10:24:36.112Z,100537.44
2023-04-30T10:27:06.166Z,100544.16
2023-04-30T10:29:34.614Z,100538.81
2023-04-30T10:32:05.819Z,100527.44
2023-04-30T10:34:39.678Z,100530.22
2023-04-30T10:37:09.320Z,100537.97
2023-04-30T10:39:39.054Z,100517.94
2023-04-30T10:42:11.729Z,100497.28
2023-04-30T10:44:40.725Z,100514.38
2023-04-30T10:47:09.527Z,100505.03
2023-04-30T10:49:39.317Z,100512.78
2023-04-30T10:52:07.285Z,100503.66
2023-04-30T10:54:37.109Z,100504.56
2023-04-30T10:57:14.431Z,100502.97
2023-04-30T10:59:47.708Z,100507.53
2023-04-30T11:02:18.064Z,100512.72
2023-04-30T11:05:05.094Z,100512.81
2023-04-30T11:07:32.934Z,100500.00
2023-04-30T11:10:02.024Z,100505.75
2023-04-30T11:12:31.374Z,100497.19
2023-04-30T11:15:01.720Z,100497.56
2023-04-30T11:17:29.924Z,100496.97
2023-04-30T11:20:00.195Z,100489.53
2023-04-30T11:22:30.182Z,100489.63
2023-04-30T11:25:05.383Z,100483.84
2023-04-30T11:27:35.677Z,100492.41
2023-04-30T11:30:05.107Z,100487.88
2023-04-30T11:32:34.002Z,100481.78
2023-04-30T11:35:02.356Z,100489.47
2023-04-30T11:37:32.108Z,100481.66
2023-04-30T11:40:01.881Z,100482.47
2023-04-30T11:42:31.394Z,100492.16
2023-04-30T11:45:08.495Z,100487.91
2023-04-30T11:47:40.183Z,100502.22
2023-04-30T11:50:08.680Z,100477.22
2023-04-30T11:52:36.946Z,100474.09
2023-04-30T11:55:09.383Z,100476.22
2023-04-30T11:57:41.901Z,100468.38
2023-04-30T12:00:13.804Z,100469.63
2023-04-30T12:02:42.117Z,100463.16
2023-04-30T12:05:14.095Z,100445.31
2023-04-30T12:07:46.443Z,100442.69
2023-04-30T12:10:14.253Z,100452.09
2023-04-30T12:12:43.287Z,100438.06
2023-04-30T12:15:18.818Z,100437.44
2023-04-30T12:17:47.128Z,100451.22
2023-04-30T12:20:16.227Z,100441.91
2023-04-30T12:22:44.989Z,100435.06
2023-04-30T12:25:14.049Z,100441.50
2023-04-30T12:27:42.579Z,100438.78
2023-04-30T12:30:10.556Z,100448.38
2023-04-30T12:32:41.383Z,100448.13
2023-04-30T12:35:10.010Z,100442.03
2023-04-30T12:37:37.699Z,100444.69
2023-04-30T12:40:08.522Z,100431.84
2023-04-30T12:42:37.125Z,100436.25
2023-04-30T12:45:05.124Z,100430.00
2023-04-30T12:47:33.227Z,100433.28
2023-04-30T12:50:02.733Z,100423.69
2023-04-30T12:52:30.434Z,100413.81
2023-04-30T12:54:58.464Z,100412.06
2023-04-30T12:57:26.328Z,100400.34
2023-04-30T12:59:58.232Z,100398.91
2023-04-30T13:02:27.791Z,100401.38
2023-04-30T13:04:55.670Z,100412.78
2023-04-30T13:07:24.962Z,100402.97
2023-04-30T13:09:53.407Z,100406.34
2023-04-30T13:12:24.523Z,100399.28
2023-04-30T13:14:53.826Z,100385.78
2023-04-30T13:17:22.600Z,100397.53
2023-04-30T13:19:50.488Z,100392.00
2023-04-30T13:22:18.406Z,100389.66
2023-04-30T13:24:48.328Z,100376.13
2023-04-30T13:27:16.594Z,100367.81
2023-04-30T13:29:44.486Z,100364.44
2023-04-30T13:32:12.819Z,100358.94
2023-04-30T13:34:40.641Z,100357.69
2023-04-30T13:37:08.990Z,100355.59
2023-04-30T13:39:37.186Z,100357.56
2023-04-30T13:42:06.362Z,100361.13
2023-04-30T13:44:34.312Z,100352.97
2023-04-30T13:47:02.564Z,100348.72
2023-04-30T13:49:30.657Z,100348.31
2023-04-30T13:51:58.798Z,100355.50
2023-04-30T13:54:26.987Z,100368.34
2023-04-30T13:56:55.606Z,100353.84
2023-04-30T13:59:26.070Z,100358.41
2023-04-30T14:01:53.951Z,100343.19
2023-04-30T14:04:22.112Z,100340.03
2023-04-30T14:06:50.504Z,100336.19
2023-04-30T14:09:18.458Z,100330.31
2023-04-30T14:11:46.469Z,100326.78
2023-04-30T14:14:14.314Z,100335.06
2023-04-30T14:16:44.801Z,100328.06
2023-04-30T14:19:12.863Z,100329.56
2023-04-30T14:21:40.747Z,100324.56
2023-04-30T14:24:08.810Z,100311.63
2023-04-30T14:26:37.241Z,100312.84
2023-04-30T14:29:05.281Z,100317.06
2023-04-30T14:31:33.253Z,100314.34
2023-04-30T14:34:02.886Z,100319.28
2023-04-30T14:36:32.657Z,100312.06
2023-04-30T14:39:00.687Z,100315.00
2023-04-30T14:41:28.951Z,100318.44
2023-04-30T14:43:57.367Z,100313.31
2023-04-30T14:46:25.344Z,100320.47
2023-04-30T14:48:54.402Z,100315.50
2023-04-30T14:51:24.023Z,100312.34
2023-04-30T14:53:51.852Z,100311.34
2023-04-30T14:56:20.596Z,100307.00
2023-04-30T14:58:49.303Z,100312.97
2023-04-30T15:01:18.307Z,100323.38
2023-04-30T15:03:47.001Z,100309.22
2023-04-30T15:06:15.306Z,100298.34
2023-04-30T15:08:44.420Z,100297.13
2023-04-30T15:11:13.305Z,100280.69
2023-04-30T15:13:40.938Z,100286.09
2023-04-30T15:16:08.796Z,100274.88
2023-04-30T15:18:37.486Z,100273.22
2023-04-30T15:21:05.377Z,100283.47
2023-04-30T15:23:33.726Z,100281.97
2023-04-30T15:26:03.172Z,100282.19
2023-04-30T15:28:31.314Z,100274.25
2023-04-30T15:30:59.280Z,100270.72
2023-04-30T15:33:29.225Z,100274.88
2023-04-30T15:35:57.367Z,100270.81
2023-04-30T15:38:25.647Z,100279.34
2023-04-30T15:40:53.355Z,100277.50
2023-04-30T15:43:22.744Z,100275.50
2023-04-30T15:45:50.446Z,100274.97
2023-04-30T15:48:18.255Z,100279.13
2023-04-30T15:50:45.950Z,100276.16
2023-04-30T15:53:13.959Z,100272.25
2023-04-30T15:55:41.766Z,100273.66
2023-04-30T15:58:09.245Z,100272.53
2023-04-30T16:00:38.888Z,100276.91
2023-04-30T16:03:07.276Z,100275.81
2023-04-30T16:05:38.805Z,100274.06
2023-04-30T16:08:06.956Z,100272.88
2023-04-30T16:10:34.589Z,100272.91
2023-04-30T16:13:02.624Z,100254.47
2023-04-30T16:15:30.869Z,100256.41
2023-04-30T16:17:59.977Z,100252.09
2023-04-30T16:20:28.811Z,100245.41
2023-04-30T16:22:56.952Z,100249.19
2023-04-30T16:25:24.848Z,100248.25
2023-04-30T16:27:53.640Z,100244.94
2023-04-30T16:30:21.974Z,100248.25
2023-04-30T16:32:49.626Z,100249.47
2023-04-30T16:35:20.045Z,100250.69
2023-04-30T16:37:48.067Z,100251.06
2023-04-30T16:40:16.159Z,100242.91
2023-04-30T16:42:45.971Z,100234.94
2023-04-30T16:45:14.310Z,100232.16
2023-04-30T16:47:43.800Z,100237.72
2023-04-30T16:50:11.916Z,100226.34
2023-04-30T16:52:41.872Z,100225.59
2023-04-30T16:55:10.479Z,100224.66
2023-04-30T16:57:38.368Z,100223.47
2023-04-30T17:00:09.049Z,100227.56
2023-04-30T17:02:38.153Z,100222.03
2023-04-30T17:05:10.625Z,100226.13
2023-04-30T17:07:40.181Z,100227.56
2023-04-30T17:10:11.105Z,100217.34
2023-04-30T17:12:39.409Z,100217.41
2023-04-30T17:15:08.241Z,100215.41
2023-04-30T17:17:37.301Z,100211.75
2023-04-30T17:20:06.816Z,100213.72
2023-04-30T17:22:36.213Z,100212.69
2023-04-30T17:25:04.660Z,100219.22
2023-04-30T17:27:36.159Z,100209.94
2023-04-30T17:30:04.495Z,100212.78
2023-04-30T17:32:33.992Z,100215.50
2023-04-30T17:35:03.277Z,100210.41
2023-04-30T17:37:31.849Z,100214.06
2023-04-30T17:40:00.541Z,100213.28
2023-04-30T17:42:28.971Z,100211.16
2023-04-30T17:44:58.864Z,100215.16
2023-04-30T17:47:27.662Z,100213.72
2023-04-30T17:49:56.488Z,100210.41
2023-04-30T17:52:26.478Z,100216.34
2023-04-30T17:54:54.984Z,100214.56
2023-04-30T17:57:23.274Z,100213.59
2023-04-30T17:59:51.640Z,100214.06
2023-04-30T18:02:21.487Z,100213.19
2023-04-30T18:04:50.833Z,100219.16
2023-04-30T18:07:19.277Z,100209.81
2023-04-30T18:09:47.980Z,100206.59
2023-04-30T18:12:16.460Z,100206.56
2023-04-30T18:14:44.435Z,100207.44
2023-04-30T18:17:12.880Z,100201.38
2023-04-30T18:19:44.791Z,100205.25
2023-04-30T18:22:13.136Z,100210.69
2023-04-30T18:24:41.682Z,100209.56
2023-04-30T18:27:10.143Z,100203.75
2023-04-30T18:29:38.364Z,100195.47
2023-04-30T18:32:06.428Z,100203.47
2023-04-30T18:34:35.161Z,100209.94
2023-04-30T18:37:04.899Z,100208.28
2023-04-30T18:39:33.175Z,100204.41
2023-04-30T18:42:02.676Z,100206.03
2023-04-30T18:44:32.224Z,100205.19
2023-04-30T18:47:00.388Z,100208.75
2023-04-30T18:49:29.387Z,100208.03
2023-04-30T18:51:58.265Z,100205.81
2023-04-30T18:54:28.078Z,100214.09
2023-04-30T18:56:56.062Z,100209.41
2023-04-30T18:59:24.273Z,100219.09
2023-04-30T19:01:52.524Z,100214.63
2023-04-30T19:04:20.702Z,100209.81
2023-04-30T19:06:50.070Z,100225.91
2023-04-30T19:09:18.145Z,100221.81
2023-04-30T19:11:47.970Z,100225.13
2023-04-30T19:14:16.482Z,100231.22
2023-04-30T19:16:44.796Z,100228.28
2023-04-30T19:19:13.191Z,100226.47
2023-04-30T19:21:41.780Z,100230.09
2023-04-30T19:24:10.225Z,100231.31
2023-04-30T19:26:38.312Z,100224.81
2023-04-30T19:29:07.997Z,100230.91
2023-04-30T19:31:36.349Z,100227.09
2023-04-30T19:34:04.684Z,100233.13
2023-04-30T19:36:36.308Z,100235.47
2023-04-30T19:39:07.552Z,100239.63
2023-04-30T19:41:36.058Z,100239.03
2023-04-30T19:44:04.272Z,100240.00
2023-04-30T19:46:39.486Z,100248.38
2023-04-30T19:49:08.205Z,100244.66
2023-04-30T19:51:36.672Z,100241.31
2023-04-30T19:54:04.859Z,100241.63
2023-04-30T19:56:32.995Z,100245.44
2023-04-30T19:59:00.767Z,100251.00
2023-04-30T20:01:29.508Z,100240.78
2023-04-30T20:04:00.249Z,100242.47
2023-04-30T20:06:28.490Z,100246.38
2023-04-30T20:08:58.900Z,100248.44
2023-04-30T20:11:27.182Z,100253.41
2023-04-30T20:13:55.596Z,100248.31
2023-04-30T20:16:24.012Z,100247.25
2023-04-30T20:18:52.454Z,100243.81
2023-04-30T20:21:25.089Z,100246.81
2023-04-30T20:23:54.292Z,100246.00
2023-04-30T20:26:24.176Z,100243.88
2023-04-30T20:28:52.493Z,100245.66
2023-04-30T20:31:21.911Z,100244.63
2023-04-30T20:33:50.137Z,100239.88
2023-04-30T20:36:18.583Z,100236.91
2023-04-30T20:38:48.290Z,100237.38
2023-04-30T20:41:16.210Z,100241.66
2023-04-30T20:43:44.300Z,100236.91
2023-04-30T20:46:14.088Z,100244.13
2023-04-30T20:48:42.374Z,100247.34
2023-04-30T20:51:11.936Z,100240.72
2023-04-30T20:53:40.548Z,100241.16
2023-04-30T20:56:12.394Z,100244.25
2023-04-30T20:58:40.979Z,100244.00
2023-04-30T21:01:09.885Z,100244.38
2023-04-30T21:03:38.685Z,100235.38
2023-04-30T21:06:07.231Z,100240.47
2023-04-30T21:08:35.428Z,100238.78
2023-04-30T21:11:04.400Z,100241.78
2023-04-30T21:13:34.542Z,100239.75
2023-04-30T21:16:05.259Z,100241.66
2023-04-30T21:18:34.830Z,100242.84
2023-04-30T21:21:03.922Z,100235.78
2023-04-30T21:23:32.958Z,100241.06
2023-04-30T21:26:01.799Z,100243.06
2023-04-30T21:28:30.738Z,100232.63
2023-04-30T21:31:04.335Z,100237.00
2023-04-30T21:33:34.295Z,100236.06
2023-04-30T21:36:01.991Z,100234.06
2023-04-30T21:38:30.258Z,100225.28
2023-04-30T21:40:58.768Z,100231.19
2023-04-30T21:43:27.617Z,100228.59
2023-04-30T21:45:56.526Z,100231.69
2023-04-30T21:48:26.975Z,100230.72
2023-04-30T21:50:55.406Z,100233.44
2023-04-30T21:53:23.897Z,100233.81
2023-04-30T21:56:07.957Z,100230.97
2023-04-30T21:58:39.697Z,100226.81
2023-04-30T22:01:08.772Z,100229.06
2023-04-30T22:03:40.385Z,100232.50
2023-04-30T22:06:09.499Z,100226.81
2023-04-30T22:08:37.449Z,100220.28
2023-04-30T22:11:05.547Z,100225.44
2023-04-30T22:13:34.799Z,100213.47
2023-04-30T22:16:03.857Z,100220.94
2023-04-30T22:18:32.761Z,100219.25
2023-04-30T22:21:02.449Z,100218.00
2023-04-30T22:23:30.972Z,100223.34
2023-04-30T22:25:59.227Z,100224.88
2023-04-30T22:28:27.920Z,100214.34
2023-04-30T22:31:00.275Z,100217.78
2023-04-30T22:33:28.549Z,100219.22
2023-04-30T22:35:56.933Z,100214.22
2023-04-30T22:38:29.486Z,100211.50
2023-04-30T22:40:58.314Z,100205.78
2023-04-30T22:43:27.184Z,100206.38
2023-04-30T22:45:55.851Z,100208.25
2023-04-30T22:48:23.889Z,100197.44
2023-04-30T22:50:52.975Z,100192.13
2023-04-30T22:53:21.209Z,100204.22
2023-04-30T22:55:51.576Z,100191.28
2023-04-30T22:58:19.879Z,100196.03
2023-04-30T23:00:50.170Z,100194.03
2023-04-30T23:03:18.940Z,100197.66
2023-04-30T23:05:52.678Z,100195.66
2023-04-30T23:08:21.093Z,100198.78
2023-04-30T23:10:55.772Z,100191.53
2023-04-30T23:13:25.539Z,100195.72
2023-04-30T23:15:53.895Z,100190.97
2023-04-30T23:18:24.760Z,100185.06
2023-04-30T23:20:53.665Z,100175.59
2023-04-30T23:23:21.619Z,100181.28
2023-04-30T23:25:49.868Z,100178.34
2023-04-30T23:28:20.008Z,100182.38
2023-04-30T23:30:51.678Z,100180.84
2023-04-30T23:33:21.755Z,100169.94
2023-04-30T23:35:49.671Z,100184.75
2023-04-30T23:38:17.923Z,100177.53
2023-04-30T23:40:46.269Z,100170.97
2023-04-30T23:43:14.431Z,100170.06
2023-04-30T23:45:43.824Z,100172.88
2023-04-30T23:48:12.115Z,100162.31
2023-04-30T23:50:40.416Z,100163.81
2023-04-30T23:53:10.308Z,100157.88
2023-04-30T23:55:41.705Z,100153.84
2023-04-30T23:58:10.069Z,100153.69
